Route Details

Aircraft Information
Group: North America Fleet
Types: B738, B752, B762, B763
Route Data
Distance: 467nm
Duration: 1h 50m
Origin METAR: KHSV 010606Z AUTO 36007KT 10SM OVC007 03/02 A3023 RMK AO2 T00280017
Dest. METAR: KRFD 010554Z 18003KT 10SM CLR M19/M22 A3036 RMK AO2 SLP298 4/007 T11891222 11150 21189 411281239 58004
Freight Data
(for Feb 1, 2023)
Load Factor:
63%
Manifested Cargo: 67,509lbs
Financial History
Total Freight: 619,710lbs
Average Load: 0lbs/flt
Fuel Used: 105,748lbs
Avg. Fuel Used: 0lbs/flt
Fuel Expense: $90,853
Avg. Fuel Expense: $0
Avg. Fuel Cost: $0/lbs
Total Gross Income: $883,715
Pilot Pay: $1,303
Total Expenses: $110,230
Total Revenue: $680,094
Average Revenue: $0

Capitol Logistics 313




KHSV
Huntsville International Airport
Huntsville, Alabama
KRFD
Chicago/Rockford International Airport
Rockford, Illinois

Activity Log

Date Flight Route Aircraft Duration
09/05/2022 CPX313 DCT RQZ DCT BNA J73 GUIDO DCT JOT DCT B763 1h 36m
01/25/2020 CPX242 RQZ BNA J73 GUIDO JOT B763 1h 42m
10/24/2019 CPX242 SALMS J39 BNA J73 OBK B763 1h 36m
07/31/2019 CPX242 KHSV/36L RQZ BNA J73 GUIDO JOT KRFD/07 B763 1h 26m
07/26/2019 CPX242 RQZ BNA J73 GUIDO JOT B763 1h 36m
07/18/2019 CPX242 RQZ BNA J73 GUIDO JOT B763 1h 34m
02/17/2019 CPX242 RQZ BNA J73 GUIDO JOT B763 1h 28m